createdAt,value
2018-09-09T00:01:11.309Z,100646.00
2018-09-09T00:03:48.043Z,100651.00
2018-09-09T00:06:24.523Z,100648.00
2018-09-09T00:09:01.730Z,100648.00
2018-09-09T00:11:37.788Z,100645.00
2018-09-09T00:14:14.388Z,100649.00
2018-09-09T00:16:51.089Z,100647.00
2018-09-09T00:19:28.788Z,100644.00
2018-09-09T00:22:06.031Z,100654.00
2018-09-09T00:24:42.977Z,100651.00
2018-09-09T00:27:19.618Z,100642.00
2018-09-09T00:29:56.156Z,100643.00
2018-09-09T00:32:33.133Z,100642.00
2018-09-09T00:35:09.848Z,100636.00
2018-09-09T00:37:46.123Z,100638.00
2018-09-09T00:40:23.904Z,100633.00
2018-09-09T00:43:00.242Z,100635.00
2018-09-09T00:45:37.908Z,100643.00
2018-09-09T00:48:14.635Z,100652.00
2018-09-09T00:50:56.093Z,100648.00
2018-09-09T00:53:37.850Z,100639.00
2018-09-09T00:56:14.683Z,100653.00
2018-09-09T00:58:52.366Z,100648.00
2018-09-09T01:01:29.291Z,100645.00
2018-09-09T01:04:06.184Z,100639.00
2018-09-09T01:06:42.610Z,100644.00
2018-09-09T01:09:18.970Z,100625.00
2018-09-09T01:11:55.668Z,100635.00
2018-09-09T01:14:33.268Z,100640.00
2018-09-09T01:17:10.171Z,100646.00
2018-09-09T01:19:46.573Z,100641.00
2018-09-09T01:22:23.241Z,100639.00
2018-09-09T01:24:59.538Z,100626.00
2018-09-09T01:27:36.068Z,100625.00
2018-09-09T01:30:12.054Z,100630.00
2018-09-09T01:32:50.260Z,100623.00
2018-09-09T01:35:26.765Z,100617.00
2018-09-09T01:38:05.053Z,100618.00
2018-09-09T01:40:41.917Z,100633.00
2018-09-09T01:43:19.405Z,100640.00
2018-09-09T01:45:57.670Z,100636.00
2018-09-09T01:48:35.751Z,100634.00
2018-09-09T01:51:11.973Z,100641.00
2018-09-09T01:53:48.698Z,100650.00
2018-09-09T01:56:25.179Z,100647.00
2018-09-09T01:59:02.827Z,100653.00
2018-09-09T02:01:39.790Z,100657.00
2018-09-09T02:04:16.400Z,100656.00
2018-09-09T02:06:52.790Z,100660.00
2018-09-09T02:09:29.519Z,100665.00
2018-09-09T02:12:06.510Z,100667.00
2018-09-09T02:14:46.413Z,100661.00
2018-09-09T02:17:24.128Z,100669.00
2018-09-09T02:20:01.823Z,100670.00
2018-09-09T02:22:38.796Z,100668.00
2018-09-09T02:25:15.369Z,100664.00
2018-09-09T02:27:51.662Z,100669.00
2018-09-09T02:30:28.019Z,100665.00
2018-09-09T02:33:04.862Z,100656.00
2018-09-09T02:35:41.641Z,100654.00
2018-09-09T02:38:17.300Z,100655.00
2018-09-09T02:40:55.265Z,100652.00
2018-09-09T02:43:31.807Z,100642.00
2018-09-09T02:46:13.464Z,100635.00
2018-09-09T02:48:49.143Z,100639.00
2018-09-09T02:51:25.921Z,100631.00
2018-09-09T02:54:03.355Z,100633.00
2018-09-09T02:56:39.807Z,100631.00
2018-09-09T02:59:15.763Z,100620.00
2018-09-09T03:01:53.629Z,100620.00
2018-09-09T03:04:30.449Z,100620.00
2018-09-09T03:07:07.975Z,100616.00
2018-09-09T03:09:45.125Z,100619.00
2018-09-09T03:12:22.056Z,100613.00
2018-09-09T03:14:58.985Z,100612.00
2018-09-09T03:17:34.973Z,100621.00
2018-09-09T03:20:11.778Z,100620.00
2018-09-09T03:22:47.629Z,100632.00
2018-09-09T03:25:24.695Z,100637.00
2018-09-09T03:28:03.025Z,100637.00
2018-09-09T03:30:39.907Z,100640.00
2018-09-09T03:33:17.090Z,100638.00
2018-09-09T03:35:53.519Z,100638.00
2018-09-09T03:38:30.861Z,100641.00
2018-09-09T03:41:07.308Z,100638.00
2018-09-09T03:43:43.945Z,100637.00
2018-09-09T03:46:20.756Z,100645.00
2018-09-09T03:48:56.901Z,100636.00
2018-09-09T03:51:33.375Z,100638.00
2018-09-09T03:54:09.592Z,100640.00
2018-09-09T03:56:45.808Z,100638.00
2018-09-09T03:59:22.193Z,100643.00
2018-09-09T04:01:58.773Z,100645.00
2018-09-09T04:04:38.429Z,100647.00
2018-09-09T04:07:15.699Z,100653.00
2018-09-09T04:09:53.552Z,100651.00
2018-09-09T04:12:34.065Z,100649.00
2018-09-09T04:15:11.413Z,100643.00
2018-09-09T04:17:48.520Z,100643.00
2018-09-09T04:20:25.676Z,100643.00
2018-09-09T04:23:02.686Z,100631.00
2018-09-09T04:25:40.151Z,100644.00
2018-09-09T04:28:16.540Z,100652.00
2018-09-09T04:30:54.536Z,100634.00
2018-09-09T04:33:30.684Z,100637.00
2018-09-09T04:36:06.804Z,100644.00
2018-09-09T04:38:43.312Z,100642.00
2018-09-09T04:41:19.929Z,100636.00
2018-09-09T04:43:57.148Z,100641.00
2018-09-09T04:46:33.694Z,100647.00
2018-09-09T04:49:11.363Z,100652.00
2018-09-09T04:51:47.903Z,100656.00
2018-09-09T04:54:25.146Z,100665.00
2018-09-09T04:57:02.103Z,100666.00
2018-09-09T04:59:39.699Z,100664.00
2018-09-09T05:02:16.322Z,100665.00
2018-09-09T05:04:52.049Z,100667.00
2018-09-09T05:07:28.887Z,100665.00
2018-09-09T05:10:05.121Z,100667.00
2018-09-09T05:12:41.168Z,100661.00
2018-09-09T05:15:17.822Z,100654.00
2018-09-09T05:17:54.893Z,100655.00
2018-09-09T05:20:31.467Z,100665.00
2018-09-09T05:23:08.165Z,100667.00
2018-09-09T05:25:44.195Z,100660.00
2018-09-09T05:28:20.874Z,100668.00
2018-09-09T05:30:56.551Z,100674.00
2018-09-09T05:33:35.103Z,100679.00
2018-09-09T05:36:10.961Z,100687.00
2018-09-09T05:38:46.917Z,100691.00
2018-09-09T05:41:23.039Z,100692.00
2018-09-09T05:44:00.220Z,100691.00
2018-09-09T05:46:38.674Z,100693.00
2018-09-09T05:49:14.795Z,100687.00
2018-09-09T05:51:51.161Z,100678.00
2018-09-09T05:54:27.790Z,100686.00
2018-09-09T05:57:05.319Z,100691.00
2018-09-09T05:59:40.993Z,100695.00
2018-09-09T06:02:17.340Z,100695.00
2018-09-09T06:04:53.646Z,100689.00
2018-09-09T06:07:29.624Z,100689.00
2018-09-09T06:10:06.214Z,100690.00
2018-09-09T06:12:42.664Z,100693.00
2018-09-09T06:15:20.109Z,100696.00
2018-09-09T06:17:57.788Z,100691.00
2018-09-09T06:20:33.783Z,100692.00
2018-09-09T06:23:09.793Z,100701.00
2018-09-09T06:25:46.657Z,100693.00
2018-09-09T06:28:22.849Z,100689.00
2018-09-09T06:30:59.503Z,100692.00
2018-09-09T06:33:36.098Z,100694.00
2018-09-09T06:36:13.308Z,100698.00
2018-09-09T06:38:50.033Z,100701.00
2018-09-09T06:41:26.675Z,100692.00
2018-09-09T06:44:02.895Z,100691.00
2018-09-09T06:46:40.594Z,100698.00
2018-09-09T06:49:19.104Z,100704.00
2018-09-09T06:51:56.128Z,100709.00
2018-09-09T06:54:32.085Z,100698.00
2018-09-09T06:57:08.281Z,100692.00
2018-09-09T06:59:44.387Z,100702.00
2018-09-09T07:02:21.342Z,100693.00
2018-09-09T07:04:57.509Z,100682.00
2018-09-09T07:07:35.725Z,100679.00
2018-09-09T07:10:12.056Z,100682.00
2018-09-09T07:12:48.369Z,100693.00
2018-09-09T07:15:26.347Z,100692.00
2018-09-09T07:18:02.944Z,100692.00
2018-09-09T07:20:39.388Z,100686.00
2018-09-09T07:23:15.758Z,100682.00
2018-09-09T07:25:54.224Z,100689.00
2018-09-09T07:28:31.202Z,100692.00
2018-09-09T07:33:06.052Z,100706.00
2018-09-09T07:35:42.530Z,100713.00
2018-09-09T07:38:18.881Z,100717.00
2018-09-09T07:40:56.511Z,100715.00
2018-09-09T07:43:33.648Z,100708.00
2018-09-09T07:46:11.122Z,100714.00
2018-09-09T07:48:46.796Z,100722.00
2018-09-09T07:51:24.026Z,100707.00
2018-09-09T07:53:59.714Z,100705.00
2018-09-09T07:56:38.657Z,100701.00
2018-09-09T07:59:16.396Z,100701.00
2018-09-09T08:01:54.234Z,100702.00
2018-09-09T08:04:34.495Z,100701.00
2018-09-09T08:07:13.307Z,100694.00
2018-09-09T08:09:51.174Z,100699.00
2018-09-09T08:12:30.138Z,100677.00
2018-09-09T08:15:08.048Z,100678.00
2018-09-09T08:17:47.413Z,100683.00
2018-09-09T08:20:24.221Z,100679.00
2018-09-09T08:23:02.538Z,100685.00
2018-09-09T08:25:40.140Z,100693.00
2018-09-09T08:28:17.910Z,100688.00
2018-09-09T08:30:54.905Z,100696.00
2018-09-09T08:33:35.934Z,100695.00
2018-09-09T08:36:13.514Z,100696.00
2018-09-09T08:38:51.202Z,100696.00
2018-09-09T08:41:27.583Z,100694.00
2018-09-09T08:44:04.767Z,100690.00
2018-09-09T08:46:43.081Z,100692.00
2018-09-09T08:49:20.637Z,100693.00
2018-09-09T08:51:58.916Z,100683.00
2018-09-09T08:54:36.363Z,100680.00
2018-09-09T08:57:12.357Z,100688.00
2018-09-09T08:59:48.414Z,100687.00
2018-09-09T09:02:25.804Z,100688.00
2018-09-09T09:05:04.857Z,100675.00
2018-09-09T09:07:41.733Z,100685.00
2018-09-09T09:10:19.316Z,100683.00
2018-09-09T09:12:57.592Z,100687.00
2018-09-09T09:15:34.804Z,100681.00
2018-09-09T09:18:13.210Z,100675.00
2018-09-09T09:20:51.126Z,100674.00
2018-09-09T09:23:28.269Z,100677.00
2018-09-09T09:26:06.419Z,100669.00
2018-09-09T09:28:43.703Z,100666.00
2018-09-09T09:31:20.771Z,100673.00
2018-09-09T09:33:59.376Z,100672.00
2018-09-09T09:36:37.484Z,100673.00
2018-09-09T09:39:14.678Z,100683.00
2018-09-09T09:41:53.125Z,100655.00
2018-09-09T09:44:31.008Z,100654.00
2018-09-09T09:47:08.514Z,100657.00
2018-09-09T09:49:48.276Z,100663.00
2018-09-09T09:52:25.868Z,100662.00
2018-09-09T09:55:03.580Z,100673.00
2018-09-09T09:57:42.713Z,100666.00
2018-09-09T10:00:25.021Z,100648.00
2018-09-09T10:03:04.324Z,100655.00
2018-09-09T10:05:41.977Z,100648.00
2018-09-09T10:08:20.734Z,100647.00
2018-09-09T10:10:58.778Z,100662.00
2018-09-09T10:13:36.925Z,100656.00
2018-09-09T10:16:15.821Z,100657.00
2018-09-09T10:18:53.069Z,100647.00
2018-09-09T10:21:30.606Z,100638.00
2018-09-09T10:24:15.288Z,100639.00
2018-09-09T10:26:58.956Z,100624.00
2018-09-09T10:32:21.120Z,100642.00
2018-09-09T10:35:00.252Z,100649.00
2018-09-09T10:37:37.817Z,100644.00
2018-09-09T10:40:16.865Z,100653.00
2018-09-09T10:42:53.847Z,100653.00
2018-09-09T10:45:31.602Z,100659.00
2018-09-09T10:48:09.262Z,100649.00
2018-09-09T10:50:47.860Z,100645.00
2018-09-09T10:53:25.750Z,100644.00
2018-09-09T10:56:04.544Z,100638.00
2018-09-09T10:58:42.601Z,100647.00
2018-09-09T11:01:20.588Z,100653.00
2018-09-09T11:03:57.651Z,100648.00
2018-09-09T11:06:38.943Z,100647.00
2018-09-09T11:09:19.128Z,100651.00
2018-09-09T11:11:57.055Z,100643.00
2018-09-09T11:14:34.988Z,100648.00
2018-09-09T11:17:12.464Z,100642.00
2018-09-09T11:19:50.641Z,100631.00
2018-09-09T11:22:29.667Z,100636.00
2018-09-09T11:25:06.615Z,100638.00
2018-09-09T11:27:44.993Z,100640.00
2018-09-09T11:30:27.725Z,100628.00
2018-09-09T11:33:06.736Z,100630.00
2018-09-09T11:35:45.400Z,100629.00
2018-09-09T11:38:23.741Z,100626.00
2018-09-09T11:41:00.561Z,100646.00
2018-09-09T11:43:36.818Z,100631.00
2018-09-09T11:46:13.685Z,100627.00
2018-09-09T11:48:51.186Z,100624.00
2018-09-09T11:51:28.037Z,100629.00
2018-09-09T11:54:07.582Z,100627.00
2018-09-09T11:56:45.351Z,100632.00
2018-09-09T11:59:23.958Z,100629.00
2018-09-09T12:02:02.166Z,100625.00
2018-09-09T12:04:38.761Z,100628.00
2018-09-09T12:07:16.961Z,100637.00
2018-09-09T12:09:54.444Z,100639.00
2018-09-09T12:12:31.973Z,100632.00
2018-09-09T12:15:09.695Z,100614.00
2018-09-09T12:17:47.542Z,100621.00
2018-09-09T12:20:24.573Z,100623.00
2018-09-09T12:23:02.321Z,100619.00
2018-09-09T12:25:40.595Z,100622.00
2018-09-09T12:28:18.163Z,100612.00
2018-09-09T12:30:55.987Z,100613.00
2018-09-09T12:33:33.219Z,100610.00
2018-09-09T12:36:09.637Z,100614.00
2018-09-09T12:38:45.936Z,100615.00
2018-09-09T12:41:23.838Z,100614.00
2018-09-09T12:44:08.056Z,100617.00
2018-09-09T12:46:50.682Z,100614.00
2018-09-09T12:49:27.825Z,100613.00
2018-09-09T12:52:05.800Z,100615.00
2018-09-09T12:54:43.604Z,100614.00
2018-09-09T12:57:21.831Z,100618.00
2018-09-09T12:59:58.812Z,100617.00
2018-09-09T13:02:36.714Z,100626.00
2018-09-09T13:05:14.064Z,100626.00
2018-09-09T13:07:51.428Z,100632.00
2018-09-09T13:10:29.308Z,100622.00
2018-09-09T13:13:12.050Z,100630.00
2018-09-09T13:15:49.547Z,100630.00
2018-09-09T13:18:27.025Z,100628.00
2018-09-09T13:21:05.067Z,100628.00
2018-09-09T13:23:42.444Z,100619.00
2018-09-09T13:26:19.715Z,100627.00
2018-09-09T13:28:56.633Z,100634.00
2018-09-09T13:31:34.693Z,100637.00
2018-09-09T13:34:11.948Z,100634.00
2018-09-09T13:36:49.528Z,100637.00
2018-09-09T13:39:26.451Z,100628.00
2018-09-09T13:42:02.956Z,100630.00
2018-09-09T13:44:41.444Z,100635.00
2018-09-09T13:47:18.789Z,100633.00
2018-09-09T13:49:56.796Z,100640.00
2018-09-09T13:52:35.524Z,100646.00
2018-09-09T13:55:13.530Z,100639.00
2018-09-09T13:57:53.197Z,100646.00
2018-09-09T14:00:31.047Z,100640.00
2018-09-09T14:03:08.579Z,100634.00
2018-09-09T14:05:45.994Z,100634.00
2018-09-09T14:08:22.442Z,100629.00
2018-09-09T14:11:00.447Z,100624.00
2018-09-09T14:13:38.364Z,100623.00
2018-09-09T14:16:15.491Z,100624.00
2018-09-09T14:18:52.446Z,100631.00
2018-09-09T14:21:30.660Z,100630.00
2018-09-09T14:24:08.964Z,100628.00
2018-09-09T14:26:46.914Z,100633.00
2018-09-09T14:29:24.768Z,100624.00
2018-09-09T14:32:02.058Z,100624.00
2018-09-09T14:34:39.151Z,100625.00
2018-09-09T14:37:16.997Z,100632.00
2018-09-09T14:39:53.986Z,100622.00
2018-09-09T14:42:30.824Z,100632.00
2018-09-09T14:45:08.790Z,100627.00
2018-09-09T14:47:46.493Z,100623.00
2018-09-09T14:50:23.353Z,100622.00
2018-09-09T14:53:00.667Z,100623.00
2018-09-09T14:55:38.422Z,100623.00
2018-09-09T14:58:15.638Z,100622.00
2018-09-09T15:00:52.784Z,100632.00
2018-09-09T15:03:30.507Z,100634.00
2018-09-09T15:06:07.365Z,100633.00
2018-09-09T15:08:45.412Z,100634.00
2018-09-09T15:11:21.770Z,100635.00
2018-09-09T15:14:00.858Z,100638.00
2018-09-09T15:16:39.276Z,100629.00
2018-09-09T15:19:18.233Z,100630.00
2018-09-09T15:21:56.440Z,100626.00
2018-09-09T15:24:35.735Z,100619.00
2018-09-09T15:27:13.846Z,100623.00
2018-09-09T15:29:55.658Z,100617.00
2018-09-09T15:32:35.285Z,100612.00
2018-09-09T15:35:15.987Z,100612.00
2018-09-09T15:37:54.197Z,100611.00
2018-09-09T15:40:37.787Z,100609.00
2018-09-09T15:43:16.378Z,100606.00
2018-09-09T15:45:57.584Z,100605.00
2018-09-09T15:48:35.765Z,100607.00
2018-09-09T15:51:14.003Z,100606.00
2018-09-09T15:53:51.942Z,100603.00
2018-09-09T15:56:30.644Z,100601.00
2018-09-09T15:59:07.809Z,100607.00
2018-09-09T16:01:44.865Z,100608.00
2018-09-09T16:04:21.537Z,100607.00
2018-09-09T16:06:57.908Z,100613.00
2018-09-09T16:09:36.109Z,100613.00
2018-09-09T16:12:12.836Z,100612.00
2018-09-09T16:14:51.290Z,100622.00
2018-09-09T16:17:30.958Z,100618.00
2018-09-09T16:20:10.521Z,100618.00
2018-09-09T16:22:48.655Z,100616.00
2018-09-09T16:25:26.620Z,100620.00
2018-09-09T16:28:05.761Z,100620.00
2018-09-09T16:30:44.437Z,100617.00
2018-09-09T16:33:21.133Z,100618.00
2018-09-09T16:35:59.177Z,100625.00
2018-09-09T16:38:37.385Z,100628.00
2018-09-09T16:41:16.873Z,100632.00
2018-09-09T16:43:56.749Z,100635.00
2018-09-09T16:46:34.433Z,100636.00
2018-09-09T16:49:14.526Z,100637.00
2018-09-09T16:51:52.714Z,100635.00
2018-09-09T16:54:30.065Z,100641.00
2018-09-09T16:57:06.848Z,100641.00
2018-09-09T16:59:44.509Z,100637.00
2018-09-09T17:02:27.641Z,100638.00
2018-09-09T17:05:05.066Z,100633.00
2018-09-09T17:07:43.118Z,100632.00
2018-09-09T17:10:20.312Z,100631.00
2018-09-09T17:12:57.981Z,100631.00
2018-09-09T17:15:36.087Z,100638.00
2018-09-09T17:18:13.381Z,100629.00
2018-09-09T17:20:51.852Z,100631.00
2018-09-09T17:23:29.208Z,100632.00
2018-09-09T17:26:07.393Z,100633.00
2018-09-09T17:28:45.599Z,100637.00
2018-09-09T17:31:28.691Z,100639.00
2018-09-09T17:34:06.285Z,100645.00
2018-09-09T17:36:46.366Z,100644.00
2018-09-09T17:39:24.706Z,100649.00
2018-09-09T17:42:05.449Z,100652.00
2018-09-09T17:44:42.900Z,100655.00
2018-09-09T17:47:21.934Z,100660.00
2018-09-09T17:49:59.016Z,100661.00
2018-09-09T17:52:37.302Z,100666.00
2018-09-09T17:55:14.617Z,100660.00
2018-09-09T17:57:51.938Z,100670.00
2018-09-09T18:00:29.498Z,100673.00
2018-09-09T18:03:12.415Z,100672.00
2018-09-09T18:05:49.134Z,100678.00
2018-09-09T18:08:28.014Z,100676.00
2018-09-09T18:11:04.743Z,100682.00
2018-09-09T18:13:44.009Z,100686.00
2018-09-09T18:16:21.954Z,100687.00
2018-09-09T18:19:00.058Z,100690.00
2018-09-09T18:21:37.115Z,100683.00
2018-09-09T18:24:13.221Z,100683.00
2018-09-09T18:26:51.981Z,100688.00
2018-09-09T18:29:30.570Z,100691.00
2018-09-09T18:32:09.366Z,100693.00
2018-09-09T18:34:46.517Z,100695.00
2018-09-09T18:37:23.026Z,100702.00
2018-09-09T18:39:59.387Z,100699.00
2018-09-09T18:42:36.859Z,100694.00
2018-09-09T18:45:13.390Z,100697.00
2018-09-09T18:47:50.861Z,100701.00
2018-09-09T18:50:28.701Z,100705.00
2018-09-09T18:53:07.114Z,100704.00
2018-09-09T18:55:43.786Z,100703.00
2018-09-09T18:58:21.208Z,100704.00
2018-09-09T19:00:57.406Z,100699.00
2018-09-09T19:03:34.761Z,100699.00
2018-09-09T19:06:11.217Z,100697.00
2018-09-09T19:08:52.209Z,100693.00
2018-09-09T19:11:29.287Z,100694.00
2018-09-09T19:14:06.786Z,100702.00
2018-09-09T19:16:44.093Z,100705.00
2018-09-09T19:19:20.589Z,100705.00
2018-09-09T19:21:57.699Z,100705.00
2018-09-09T19:24:34.354Z,100709.00
2018-09-09T19:27:11.396Z,100712.00
2018-09-09T19:29:48.235Z,100718.00
2018-09-09T19:32:24.722Z,100717.00
2018-09-09T19:35:01.657Z,100715.00
2018-09-09T19:37:38.065Z,100714.00
2018-09-09T19:40:14.185Z,100713.00
2018-09-09T19:42:52.801Z,100715.00
2018-09-09T19:45:31.422Z,100719.00
2018-09-09T19:48:09.131Z,100717.00
2018-09-09T19:50:46.099Z,100712.00
2018-09-09T19:53:24.164Z,100712.00
2018-09-09T19:56:00.364Z,100707.00
2018-09-09T19:58:38.518Z,100692.00
2018-09-09T20:01:15.060Z,100693.00
2018-09-09T20:03:52.576Z,100688.00
2018-09-09T20:06:31.383Z,100689.00
2018-09-09T20:09:09.934Z,100695.00
2018-09-09T20:11:46.631Z,100697.00
2018-09-09T20:14:24.967Z,100695.00
2018-09-09T20:17:02.190Z,100693.00
2018-09-09T20:19:38.762Z,100697.00
2018-09-09T20:22:15.466Z,100699.00
2018-09-09T20:24:53.379Z,100694.00
2018-09-09T20:27:30.962Z,100700.00
2018-09-09T20:30:08.744Z,100704.00
2018-09-09T20:32:47.051Z,100707.00
2018-09-09T20:35:23.717Z,100708.00
2018-09-09T20:38:01.677Z,100708.00
2018-09-09T20:40:37.703Z,100711.00
2018-09-09T20:43:14.549Z,100713.00
2018-09-09T20:45:51.986Z,100711.00
2018-09-09T20:48:27.797Z,100717.00
2018-09-09T20:51:05.068Z,100715.00
2018-09-09T20:53:43.230Z,100725.00
2018-09-09T20:56:19.561Z,100726.00
2018-09-09T20:58:58.806Z,100724.00
2018-09-09T21:01:36.608Z,100726.00
2018-09-09T21:04:14.390Z,100724.00
2018-09-09T21:06:52.850Z,100728.00
2018-09-09T21:09:29.148Z,100731.00
2018-09-09T21:12:05.527Z,100732.00
2018-09-09T21:14:42.356Z,100730.00
2018-09-09T21:17:18.518Z,100727.00
2018-09-09T21:19:54.430Z,100727.00
2018-09-09T21:22:30.870Z,100729.00
2018-09-09T21:25:07.293Z,100727.00
2018-09-09T21:27:45.003Z,100731.00
2018-09-09T21:30:20.877Z,100729.00
2018-09-09T21:32:59.089Z,100729.00
2018-09-09T21:35:36.777Z,100730.00
2018-09-09T21:38:14.025Z,100729.00
2018-09-09T21:40:51.701Z,100727.00
2018-09-09T21:43:28.748Z,100732.00
2018-09-09T21:46:04.987Z,100736.00
2018-09-09T21:48:42.360Z,100738.00
2018-09-09T21:51:19.919Z,100737.00
2018-09-09T21:53:56.213Z,100738.00
2018-09-09T21:56:34.174Z,100739.00
2018-09-09T21:59:13.073Z,100736.00
2018-09-09T22:01:54.446Z,100742.00
2018-09-09T22:04:31.223Z,100746.00
2018-09-09T22:07:12.049Z,100740.00
2018-09-09T22:09:48.315Z,100738.00
2018-09-09T22:12:24.884Z,100737.00
2018-09-09T22:15:02.989Z,100728.00
2018-09-09T22:17:39.025Z,100727.00
2018-09-09T22:20:15.802Z,100734.00
2018-09-09T22:22:52.838Z,100736.00
2018-09-09T22:25:28.793Z,100740.00
2018-09-09T22:28:06.680Z,100741.00
2018-09-09T22:30:42.644Z,100736.00
2018-09-09T22:33:18.648Z,100735.00
2018-09-09T22:35:54.956Z,100732.00
2018-09-09T22:38:30.980Z,100737.00
2018-09-09T22:41:08.181Z,100734.00
2018-09-09T22:43:44.634Z,100733.00
2018-09-09T22:46:20.817Z,100728.00
2018-09-09T22:48:56.874Z,100727.00
2018-09-09T22:51:33.351Z,100725.00
2018-09-09T22:54:11.699Z,100731.00
2018-09-09T22:56:49.825Z,100732.00
2018-09-09T22:59:26.117Z,100731.00
2018-09-09T23:02:03.240Z,100734.00
2018-09-09T23:04:39.610Z,100729.00
2018-09-09T23:07:15.749Z,100735.00
2018-09-09T23:09:51.609Z,100734.00
2018-09-09T23:12:28.266Z,100729.00
2018-09-09T23:15:04.933Z,100733.00
2018-09-09T23:17:41.004Z,100732.00
2018-09-09T23:20:17.742Z,100732.00
2018-09-09T23:22:54.728Z,100734.00
2018-09-09T23:25:30.799Z,100730.00
2018-09-09T23:28:08.040Z,100725.00
2018-09-09T23:30:44.456Z,100729.00
2018-09-09T23:33:22.136Z,100728.00
2018-09-09T23:36:00.014Z,100735.00
2018-09-09T23:38:35.981Z,100735.00
2018-09-09T23:41:12.489Z,100729.00
2018-09-09T23:43:48.935Z,100734.00
2018-09-09T23:46:25.384Z,100730.00
2018-09-09T23:49:02.213Z,100723.00
2018-09-09T23:51:39.304Z,100721.00
2018-09-09T23:54:15.809Z,100724.00
2018-09-09T23:56:51.447Z,100726.00
2018-09-09T23:59:28.345Z,100727.00
